PILOTS ONLINE: 579    ATC ONLINE: 120

CYRL - Red Lake Airport

Location

IATA YRL
City Red Lake
Country  Canada
Latitude 51° 4' 0" N
Longitude 93° 47' 35" W
Elevation 1265 ft
Type Medium Airport

Runways

08/26 5000 ft / 150 ft

Weather

METAR
2014/07/28 20:21
CYRL 282021Z 31006KT 290V360 15SM TS FEW060CB BKN080 OVC240 23/13 A3014 RMK CB2AC4CI2 SLP210 DENSITY ALT 2200FT
TAF
2014/07/28 20:00
TAF CYRL 281942Z 2820/2902 33008KT P6SM BKN080 
      TEMPO 2820/2821 2SM TSRA BR BKN060CB 
     FM282100 32008KT P6SM BKN060 
      TEMPO 2821/2902 P6SM -SHRA PROB30 2821/2902 2SM TSRA BR OVC020CB 
      RMK NXT FCST WILL BE ISSUED AT 291045Z

Outbound flights

Inbound flights